In Rescue
 
Open Full Screen Window  High Contrast Mode
Wind Gusting 00 knots
04
January 18, 2019 9:30 AM EST
Present Weather: Mist
Weather Information
Wind Direction
  270 °
Wind Speed
  04 kt (5 mph)
Wind Gust
  00 kt (0 mph)
Altimeter
30.12 in
Visibility
2 1/2 SM
Temperature
00° C
32° F
Dewpoint
00° C
32° F
Humidity
100%
Sky Condition
Broken @ 1,300 ft
Scattered @ 800 ft
IFR

METAR KAXV 181430Z AUTO 27004KT 2 1/2SM BR SCT008 BKN013 00/00 A3012 RMK AO2

FAA Disclaimer: The data displayed is for advisory purposes only and is not to be used for flight planning or operations.